Latest Weather Observations for Sydney - Observatory Hill

IDN60801

Issued at 8:03 pm EDT Tuesday 11 December 2018 (issued every 10 minutes, with the page automatically refreshed every 10 minutes)

About weather observations | Map of weather stations | Latest weather observations for NSW | Other Formats
Station Details ID: 066062 Name: SYDNEY (OBSERVATORY HILL) Lat: -33.86 Lon: 151.21 Height: 39.0 m
Data from the previous 72 hours. | See also: Recent months at Sydney - Observatory Hill

* Apparent temperature (App Temp) for Sydney - Observatory Hill is calculated using temperature observations collected at Sydney - Observatory Hill and wind observations collected at Fort Denison, as wind observations are not currently provided for Sydney - Observatory Hill.

Date/Time
EDT
Temp
°C
App
Temp
°C
Dew
Point
°C
Rel
Hum
%
Delta-T
°C
Wind Press
QNH
hPa
Press
MSL
hPa
Rain since
9am
mm
Dir  Spd
km/h
Gust
km/h
Spd
kts
Gust
kts
11/08:00pm 20.7 20.3 14.1 66 3.8 SE 9 - 5 - 1018.0 1017.9 0.0
11/07:30pm 21.2 20.8 14.1 64 4.1 SE 9 - 5 - 1017.9 1017.8 0.0
11/07:00pm 21.0 20.2 13.9 64 4.1 ESE 11 - 6 - 1017.6 1017.5 0.0
11/06:30pm 21.2 20.3 13.6 62 4.4 ESE 11 - 6 - 1017.5 1017.4 0.0
11/06:00pm 21.2 20.3 13.6 62 4.4 ESE 11 - 6 - 1017.5 1017.4 0.0
11/05:30pm 21.2 20.3 13.6 62 4.4 ESE 11 - 6 - 1017.6 1017.5 0.0
11/05:00pm 21.4 20.5 13.8 62 4.4 ESE 11 - 6 - 1017.7 1017.6 0.0
11/04:30pm 21.4 20.1 13.6 61 4.5 ESE 13 - 7 - 1017.8 1017.7 0.0
11/04:00pm 21.9 20.7 14.0 61 4.6 ESE 13 - 7 - 1018.1 1018.0 0.0
11/03:30pm 21.9 20.4 13.0 57 5.1 ESE 13 - 7 - 1018.1 1018.0 0.0
11/03:00pm 22.3 21.1 13.9 59 4.9 ESE 13 - 7 - 1018.5 1018.4 0.0
11/02:30pm 22.2 21.5 13.3 57 5.1 ESE 9 - 5 - 1018.8 1018.7 0.0
11/02:00pm 22.3 20.3 13.9 59 4.9 SE 17 - 9 - 1018.7 1018.6 0.0
11/01:30pm 22.3 20.7 12.8 55 5.4 SE 13 - 7 - 1019.0 1018.9 0.0
11/01:00pm 22.3 20.1 13.4 57 5.1 ESE 17 - 9 - 1019.2 1019.1 0.0
11/12:30pm 22.5 21.0 13.0 55 5.5 SSE 13 - 7 - 1019.2 1019.1 0.0
11/12:00pm 23.2 21.3 13.1 53 5.8 SE 15 - 8 - 1019.3 1019.2 0.0
11/11:30am 23.0 20.2 12.6 52 5.9 ESE 19 - 10 - 1019.2 1019.1 0.0
11/11:00am 23.1 21.7 12.1 50 6.2 SSE 11 - 6 - 1019.4 1019.3 0.0
11/10:30am 23.2 21.5 12.5 51 6.1 SSE 13 - 7 - 1019.5 1019.4 0.0
11/10:00am 22.2 20.5 13.5 57 5.0 SSE 15 - 8 - 1019.5 1019.4 0.0
11/09:30am 22.9 21.8 14.2 58 5.1 S 13 - 7 - 1019.4 1019.3 0.0
11/09:00am 23.7 21.8 14.1 55 5.6 SE 17 - 9 - 1019.3 1019.2 0.0
11/08:30am 22.2 20.6 13.8 59 4.9 SSE 15 - 8 - 1019.4 1019.3 0.0
11/08:00am 21.3 19.9 14.5 65 4.0 SSE 15 - 8 - 1019.2 1019.1 0.0
11/07:30am 20.6 19.4 14.0 66 3.8 SSE 13 - 7 - 1019.0 1018.9 0.0
11/07:00am 20.4 18.5 14.1 67 3.6 SSE 17 - 9 - 1018.6 1018.5 0.0
11/06:30am 20.2 19.5 14.3 69 3.4 SSE 11 - 6 - 1018.4 1018.3 0.0
11/06:00am 20.0 18.8 13.9 68 3.5 SSE 13 - 7 - 1018.1 1018.0 0.0
11/05:30am 20.0 18.8 14.1 69 3.4 SSE 13 - 7 - 1017.6 1017.5 0.0
11/05:00am 20.0 18.6 14.4 70 3.3 SSE 15 - 8 - 1017.9 1017.8 0.0
11/04:30am 20.0 17.9 14.6 71 3.2 SSE 19 - 10 - 1017.2 1017.1 0.0
11/04:00am 20.2 19.2 14.6 70 3.3 SSE 13 - 7 - 1017.2 1017.1 0.0
11/03:30am 20.3 18.5 14.4 69 3.4 SSE 17 - 9 - 1017.6 1017.5 0.0
11/03:00am 20.3 20.3 15.3 73 3.0 S 9 - 5 - 1017.8 1017.7 0.0
11/02:30am 20.3 19.9 15.3 73 3.0 S 11 - 6 - 1017.6 1017.5 0.0
11/02:00am 20.6 20.0 15.6 73 3.0 S 13 - 7 - 1018.1 1018.0 0.0
11/01:30am 20.6 20.1 15.8 74 2.9 S 13 - 7 - 1018.2 1018.1 0.0
11/01:00am 20.6 20.4 15.6 73 3.0 S 11 - 6 - 1018.4 1018.3 0.0
11/12:30am 20.8 19.9 15.8 73 3.0 S 15 - 8 - 1018.1 1018.0 0.0
11/12:00am 20.8 20.3 15.8 73 3.0 S 13 - 7 - 1018.5 1018.4 0.0
 
Date/Time
EDT
Temp
°C
App
Temp
°C
Dew
Point
°C
Rel
Hum
%
Delta-T
°C
Wind Press
QNH
hPa
Press
MSL
hPa
Rain since
9am
mm
Dir  Spd
km/h
Gust
km/h
Spd
kts
Gust
kts
10/11:30pm 20.9 20.4 15.9 73 3.0 S 13 - 7 - 1018.2 1018.1 0.0
10/11:00pm 21.1 20.4 16.3 74 2.9 S 15 - 8 - 1018.5 1018.4 0.0
10/10:30pm 21.2 20.1 16.4 74 2.9 S 17 - 9 - 1018.7 1018.6 0.0
10/10:00pm 21.2 20.2 16.6 75 2.8 SSE 17 - 9 - 1018.3 1018.2 0.0
10/09:30pm 21.4 20.3 17.2 77 2.6 SSE 19 - 10 - 1018.1 1018.0 0.0
10/09:00pm 21.4 19.4 17.4 78 2.5 SSE 24 - 13 - 1017.2 1017.1 0.0
10/08:30pm 21.6 20.1 17.6 78 2.5 S 22 - 12 - 1016.8 1016.7 0.0
10/08:00pm 22.0 20.5 17.6 76 2.7 S 22 - 12 - 1016.4 1016.3 0.0
10/07:30pm 22.2 21.1 17.3 74 3.0 S 19 - 10 - 1016.0 1015.9 0.0
10/07:00pm 22.5 20.4 17.2 72 3.3 S 24 - 13 - 1015.5 1015.4 0.0
10/06:30pm 23.7 23.0 16.5 64 4.4 S 15 - 8 - 1014.7 1014.6 0.0
10/06:00pm 24.1 25.7 16.9 64 4.4 S 4 - 2 - 1014.2 1014.1 0.0
10/05:30pm 23.7 24.8 17.0 66 4.1 E 7 - 4 - 1013.8 1013.7 0.0
10/05:00pm 24.1 24.4 17.1 65 4.3 ESE 11 - 6 - 1013.8 1013.7 0.0
10/04:30pm 24.5 23.4 17.2 63 4.5 E 19 - 10 - 1013.7 1013.6 0.0
10/04:00pm 24.4 25.0 17.6 66 4.2 E 11 - 6 - 1013.7 1013.6 0.0
10/03:30pm 24.2 25.3 17.9 68 3.9 ESE 9 - 5 - 1014.2 1014.1 0.0
10/03:00pm 23.8 24.9 17.1 66 4.1 NE 7 - 4 - 1014.3 1014.2 0.0
10/02:30pm 24.2 23.4 17.0 64 4.5 ENE 17 - 9 - 1014.0 1013.9 0.0
10/02:00pm 24.6 24.4 16.6 61 4.9 E 13 - 7 - 1015.3 1015.2 0.0
10/01:30pm 25.0 24.4 16.7 60 5.1 E 15 - 8 - 1015.6 1015.5 0.0
10/01:00pm 25.4 25.2 16.8 59 5.3 ESE 13 - 7 - 1015.7 1015.6 0.0
10/12:30pm 25.3 25.4 17.5 62 4.9 NE 13 - 7 - 1014.9 1014.8 0.0
10/12:00pm 24.7 25.3 16.9 62 4.8 ENE 9 - 5 - 1015.8 1015.7 0.0
10/11:30am 24.4 24.6 17.6 66 4.2 E 13 - 7 - 1015.9 1015.8 0.0
10/11:00am 24.4 24.9 17.4 65 4.4 E 11 - 6 - 1016.1 1016.0 0.0
10/10:30am 24.9 24.8 17.9 65 4.4 ENE 15 - 8 - 1016.1 1016.0 0.0
10/10:00am 24.7 23.4 16.9 62 4.8 ESE 19 - 10 - 1016.1 1016.0 0.0
10/09:30am 24.8 23.4 17.0 62 4.8 ESE 20 - 11 - 1016.5 1016.4 0.0
10/09:00am 24.0 22.7 16.8 64 4.4 SE 19 - 10 - 1016.8 1016.7 0.0
10/08:30am 23.6 22.4 18.5 73 3.2 SSE 22 - 12 - 1016.6 1016.5 0.0
10/08:00am 22.2 20.9 17.3 74 3.0 S 20 - 11 - 1016.5 1016.4 0.0
10/07:30am 21.7 21.0 17.3 76 2.7 S 17 - 9 - 1016.4 1016.3 0.0
10/07:00am 21.2 21.1 17.0 77 2.6 SSW 13 - 7 - 1015.8 1015.7 0.0
10/06:30am 21.0 21.7 17.0 78 2.4 S 9 - 5 - 1015.2 1015.1 0.0
10/06:00am 20.7 22.4 17.1 80 2.2 SSE 4 - 2 - 1014.7 1014.6 0.0
10/05:30am 20.5 22.5 16.9 80 2.2 S 2 - 1 - 1014.4 1014.3 0.0
10/05:00am 20.8 22.9 17.2 80 2.2 ENE 2 - 1 - 1014.2 1014.1 0.0
10/04:30am 20.8 22.4 17.0 79 2.3 ESE 4 - 2 - 1014.2 1014.1 0.0
10/04:00am 20.7 22.8 17.1 80 2.2 NNE 2 - 1 - 1014.2 1014.1 0.0
10/03:30am 20.8 22.2 17.4 81 2.1 NE 6 - 3 - 1014.4 1014.3 0.0
10/03:00am 20.8 21.6 17.4 81 2.1 ENE 9 - 5 - 1014.4 1014.3 0.0
10/02:30am 20.9 22.2 17.5 81 2.1 ENE 7 - 4 - 1014.7 1014.6 0.0
10/02:00am 21.0 21.9 17.6 81 2.1 ENE 9 - 5 - 1015.0 1014.9 0.0
10/01:30am 21.0 20.3 17.4 80 2.2 ENE 17 - 9 - 1015.2 1015.1 0.0
10/01:00am 21.5 21.4 17.9 80 2.2 E 15 - 8 - 1015.8 1015.7 0.0
10/12:30am 21.2 21.3 17.4 79 2.3 ENE 13 - 7 - 1016.0 1015.9 0.0
10/12:00am 21.2 20.5 17.4 79 2.3 ENE 17 - 9 - 1016.1 1016.0 0.0
 
Date/Time
EDT
Temp
°C
App
Temp
°C
Dew
Point
°C
Rel
Hum
%
Delta-T
°C
Wind Press
QNH
hPa
Press
MSL
hPa
Rain since
9am
mm
Dir  Spd
km/h
Gust
km/h
Spd
kts
Gust
kts
09/11:30pm 21.3 20.7 17.5 79 2.3 ENE 17 - 9 - 1016.3 1016.2 0.0
09/11:00pm 21.4 20.4 17.6 79 2.3 ENE 19 - 10 - 1016.4 1016.3 0.0
09/10:30pm 21.5 21.6 17.5 78 2.5 ENE 13 - 7 - 1016.4 1016.3 0.0
09/10:00pm 21.6 21.4 17.6 78 2.5 ENE 15 - 8 - 1016.5 1016.4 0.0
09/09:30pm 21.6 20.6 17.6 78 2.5 ENE 19 - 10 - 1016.2 1016.1 0.0
09/09:00pm 21.8 20.7 17.4 76 2.7 E 19 - 10 - 1016.2 1016.1 0.0
09/08:30pm 22.0 20.9 17.4 75 2.8 ESE 19 - 10 - 1016.2 1016.1 0.0
09/08:00pm 22.0 22.1 17.4 75 2.8 E 13 - 7 - 1016.2 1016.1 0.0
09/07:30pm 22.3 23.1 17.4 74 3.0 ESE 9 - 5 - 1016.1 1016.0 0.0
09/07:00pm 22.4 22.1 17.3 73 3.1 E 15 - 8 - 1015.6 1015.5 0.0
09/06:30pm 23.2 22.1 17.2 69 3.7 E 19 - 10 - 1014.9 1014.8 0.0
09/06:00pm 23.6 22.8 17.1 67 4.0 ENE 17 - 9 - 1015.0 1014.9 0.0
09/05:30pm 24.1 22.4 17.1 65 4.3 ENE 22 - 12 - 1013.9 1013.8 0.0
09/05:00pm 24.6 22.2 17.3 64 4.5 ENE 26 - 14 - 1014.1 1014.0 0.0
09/04:30pm 24.2 22.8 17.0 64 4.5 NE 20 - 11 - 1014.4 1014.3 0.0
09/04:00pm 24.8 22.6 16.8 61 4.9 ENE 24 - 13 - 1014.8 1014.7 0.0
09/03:30pm 24.9 21.4 16.6 60 5.1 NE 30 - 16 - 1015.1 1015.0 0.0
09/03:00pm 25.2 22.8 16.4 58 5.4 ENE 24 - 13 - 1015.8 1015.7 0.0
09/02:30pm 25.1 22.4 15.7 56 5.7 ENE 24 - 13 - 1016.0 1015.9 0.0
09/02:00pm 25.1 21.9 15.4 55 5.9 ENE 26 - 14 - 1016.4 1016.3 0.0
09/01:30pm 25.3 22.0 15.0 53 6.2 ENE 26 - 14 - 1016.7 1016.6 0.0
09/01:00pm 24.9 22.8 15.2 54 5.8 ENE 20 - 11 - 1017.0 1016.9 0.0
09/12:30pm 24.6 22.9 15.8 58 5.3 ENE 19 - 10 - 1017.2 1017.1 0.0
09/12:00pm 23.6 21.2 16.4 64 4.4 E 24 - 13 - 1017.4 1017.3 0.0
09/11:30am 23.2 21.0 16.0 64 4.4 E 22 - 12 - 1017.8 1017.7 0.0
09/11:00am 23.7 21.7 15.5 60 4.9 E 20 - 11 - 1017.8 1017.7 0.0
09/10:30am 23.8 21.2 15.0 57 5.3 E 22 - 12 - 1018.0 1017.9 0.0
09/10:00am 24.4 22.4 15.6 58 5.3 E 20 - 11 - 1018.2 1018.1 0.0
09/09:30am 24.0 22.9 16.3 62 4.7 E 17 - 9 - 1018.1 1018.0 0.0
09/09:00am 23.1 22.5 15.7 63 4.5 ENE 13 - 7 - 1018.2 1018.1 0.0
09/08:30am 22.8 22.9 16.4 67 3.9 ENE 11 - 6 - 1018.3 1018.2 0.0
09/08:00am 21.5 21.0 16.0 71 3.3 NE 13 - 7 - 1018.2 1018.1 0.0
09/07:30am 20.5 20.8 15.9 75 2.8 ENE 9 - 5 - 1017.8 1017.7 0.0
09/07:00am 19.5 20.2 15.6 78 2.3 NE 6 - 3 - 1017.7 1017.6 0.0
09/06:30am 19.3 20.0 15.6 79 2.2 NNE 6 - 3 - 1017.5 1017.4 0.0
09/06:00am 19.1 19.8 15.6 80 2.1 N 6 - 3 - 1017.3 1017.2 0.0
09/05:30am 19.2 19.9 15.7 80 2.1 NNE 6 - 3 - 1017.1 1017.0 0.0
09/05:00am 19.4 20.0 15.9 80 2.1 NE 7 - 4 - 1016.7 1016.6 0.0
09/04:30am 19.4 20.1 16.1 81 2.0 NE 7 - 4 - 1016.7 1016.6 0.0
09/04:00am 19.3 19.9 15.8 80 2.1 NE 7 - 4 - 1016.8 1016.7 0.0
09/03:30am 19.6 20.5 16.1 80 2.1 NNE 6 - 3 - 1017.0 1016.9 0.0
09/03:00am 19.8 20.1 16.1 79 2.2 NE 9 - 5 - 1016.8 1016.7 0.0
09/02:30am 20.0 20.4 16.2 79 2.3 NE 9 - 5 - 1017.1 1017.0 0.0
09/02:00am 20.1 21.0 16.1 78 2.4 ENE 6 - 3 - 1017.4 1017.3 0.0
09/01:30am 20.2 19.8 16.2 78 2.4 NE 13 - 7 - 1017.7 1017.6 0.0
09/01:00am 20.4 20.8 16.2 77 2.5 NE 9 - 5 - 1017.9 1017.8 0.0
09/12:30am 20.5 20.4 16.1 76 2.6 NE 11 - 6 - 1018.1 1018.0 0.0
09/12:00am 20.8 20.5 16.4 76 2.7 NE 13 - 7 - 1018.3 1018.2 0.0
 
Date/Time
EDT
Temp
°C
App
Temp
°C
Dew
Point
°C
Rel
Hum
%
Delta-T
°C
Wind Press
QNH
hPa
Press
MSL
hPa
Rain since
9am
mm
Dir  Spd
km/h
Gust
km/h
Spd
kts
Gust
kts
08/11:30pm 20.9 20.8 16.1 74 2.9 NNE 11 - 6 - 1018.5 1018.4 0.0
08/11:00pm 21.3 21.0 16.5 74 2.9 NNE 13 - 7 - 1018.7 1018.6 0.0
08/10:30pm 21.4 20.7 16.4 73 3.0 NNE 15 - 8 - 1018.7 1018.6 0.0
08/10:00pm 21.4 20.3 16.4 73 3.0 NE 17 - 9 - 1018.6 1018.5 0.0
08/09:30pm 21.5 19.1 16.5 73 3.0 NE 24 - 13 - 1018.3 1018.2 0.0
08/09:00pm 21.7 19.0 16.6 73 3.1 NE 26 - 14 - 1018.0 1017.9 0.0
08/08:30pm 21.8 19.4 16.5 72 3.2 NE 24 - 13 - 1017.9 1017.8 0.0

Other Formats:

Comma delimited format used in spreadsheet applications
http://www.bom.gov.au/fwo/IDN60801/IDN60801.94768.axf

JavaScript Object Notation format (JSON) in row-major order
http://www.bom.gov.au/fwo/IDN60801/IDN60801.94768.json